Hlavní strana
METAR-TAF:

METAR-TAF

Letiště :

Palanga, Litva

zeměpisná šířka: 55-55-12N, zeměpisná délka: 021-03E, výška: 10 m

Aktuální stav počasí

Zpráva byla vytvořena před 34 minutami, v 02:50 UTC
Východní vítr 5 kt, proměnlivý mezi severovýchodním a východojihovýchodním
Teplota 9°C
Vlhkost vzduchu 93%
Tlak 1017 hPa
Viditelnost 10 km a více
Zataženo ve výšce 1300 ft

METAR: EYPA 180250Z 09005KT 040V120 9999 OVC013 09/08 Q1017

Čas: 05:24 (03:24 UTC)

Předpověď počasí

Zpráva byla vytvořena před 4 hodinami a 22 minutami, v 23:02 UTC
Předpověď platná od 18 v 00 UTC do 18 v 24 UTC
Východojihovýchodní vítr 10 kt
Viditelnost: 5000 m
Zataženo ve výšce 500 ft
kouřmo
Dočasný
od 18 v 00 UTC do 18 v 06 UTC
Viditelnost: 1500 m
Oblačno až skoro zataženo ve výšce 200 ft
Dočasný
od 18 v 06 UTC do 18 v 18 UTC
Oblačno až skoro zataženo ve výšce 1500 ft

TAF: EYPA 172302Z 1800/1824 12010KT 5000 BR OVC005 TEMPO 1800/1806 1500 BKN002 TEMPO 1806/1818 BKN015

Stav a předpovědi počasí z více než 4 000 letišť (zprávy METAR a TAF).

Červené a žluté tečky na mapě představují dostupné meteorologické stanice.

Když kurzor umístíte na tečku, zobrazí se název stanice.

Pak kliknutím zobrazíte stav a předpověď počasí.

Chcete-li změnit mapu, kliknutím na zelené tlačítko se znaménkem +mapu přiblížíte, kliknutím na zelené tlačítko se znaménkem – mapu oddálíte a kliknutím na zelené šipky přejdete na sousední mapy.


METAR-TAF: